This is the latest recevied weather packets stored in our database for station/object N5PUP-13. If no packets are shown the sender has not sent any weather packets the latest 10 day(s).
| Time | Temp. | Humidity | Pressure | Rain* | Wind** | Luminosity | Snow |
|---|---|---|---|---|---|---|---|
| 1787693100 | 33.33° C | 49% | 1015.9 hPa | 0 mm | - | - | - |
| 1787692800 | 33.33° C | 49% | 1015.9 hPa | 0 mm | - | - | - |
| 1787692500 | 33.33° C | 49% | 1015.9 hPa | 0 mm | - | - | - |
| 1787692200 | 33.33° C | 49% | 1015.9 hPa | 0 mm | - | - | - |
| 1787691900 | 33.33° C | 48% | 1015.8 hPa | 0 mm | - | - | - |
| 1787691600 | 33.33° C | 48% | 1015.9 hPa | 0 mm | - | - | - |
| 1787691300 | 33.33° C | 49% | 1016 hPa | 0 mm | - | - | - |
| 1787691000 | 33.33° C | 47% | 1016.1 hPa | 0 mm | - | - | - |
| 1787690700 | 33.89° C | 47% | 1016.2 hPa | 0 mm | - | - | - |
| 1787690400 | 34.44° C | 45% | 1016.3 hPa | 0 mm | - | - | - |
| 1787690100 | 34.44° C | 46% | 1016.5 hPa | 0 mm | - | - | - |
| 1787689800 | 34.44° C | 45% | 1016.6 hPa | 0 mm | - | - | - |
| 1787689500 | 34.44° C | 47% | 1016.7 hPa | 0 mm | - | - | - |
| 1787689200 | 34.44° C | 47% | 1016.8 hPa | 0 mm | - | - | - |
| 1787688900 | 33.33° C | 49% | 1016.6 hPa | 0 mm | - | - | - |
| 1787688600 | 33.89° C | 48% | 1016.6 hPa | 0 mm | - | - | - |
| 1787688300 | 33.89° C | 49% | 1016.6 hPa | 0 mm | - | - | - |
| 1787688000 | 33.33° C | 49% | 1016.5 hPa | 0 mm | - | - | - |
| 1787687700 | 33.89° C | 48% | 1016.6 hPa | 0 mm | - | - | - |
| 1787687400 | 32.78° C | 51% | 1016.8 hPa | 0 mm | - | - | - |
| 1787687100 | 32.22° C | 54% | 1017.1 hPa | 0 mm | - | - | - |
| 1787686800 | 31.67° C | 54% | 1017.4 hPa | 0 mm | - | - | - |
| 1787686500 | 31.67° C | 55% | 1017.6 hPa | 0 mm | - | - | - |
| 1787686200 | 31.67° C | 54% | 1017.9 hPa | 0 mm | - | - | - |
| 1787685900 | 31.67° C | 55% | 1018 hPa | 0 mm | - | - | - |
* Rain latest hour (hover to see other rain measurements)
** Current wind speed in m/s (hover to see current wind gust speed)